createdAt,value
2022-12-25T00:00:56.097Z,7.70
2022-12-25T00:03:23.397Z,7.70
2022-12-25T00:05:50.743Z,7.60
2022-12-25T00:08:17.944Z,7.60
2022-12-25T00:10:45.758Z,7.50
2022-12-25T00:13:13.067Z,7.50
2022-12-25T00:15:41.565Z,7.40
2022-12-25T00:18:08.850Z,7.50
2022-12-25T00:20:36.171Z,7.50
2022-12-25T00:23:03.455Z,7.50
2022-12-25T00:25:30.649Z,7.60
2022-12-25T00:27:57.883Z,7.60
2022-12-25T00:30:25.066Z,7.60
2022-12-25T00:32:52.302Z,7.70
2022-12-25T00:35:19.479Z,7.60
2022-12-25T00:37:46.684Z,7.50
2022-12-25T00:40:14.005Z,7.60
2022-12-25T00:42:41.198Z,7.60
2022-12-25T00:45:08.762Z,7.60
2022-12-25T00:47:35.965Z,7.60
2022-12-25T00:50:03.265Z,7.60
2022-12-25T00:52:30.956Z,7.50
2022-12-25T00:54:58.140Z,7.50
2022-12-25T00:57:25.307Z,7.50
2022-12-25T00:59:52.488Z,7.40
2022-12-25T01:02:25.919Z,7.50
2022-12-25T01:04:56.891Z,7.40
2022-12-25T01:07:25.051Z,7.40
2022-12-25T01:10:10.865Z,7.40
2022-12-25T01:12:40.302Z,7.50
2022-12-25T01:15:08.493Z,7.50
2022-12-25T01:17:35.771Z,7.50
2022-12-25T01:20:03.380Z,7.50
2022-12-25T01:22:30.634Z,7.50
2022-12-25T01:24:57.813Z,7.50
2022-12-25T01:27:25.077Z,7.50
2022-12-25T01:29:52.292Z,7.60
2022-12-25T01:32:19.498Z,7.40
2022-12-25T01:34:50.597Z,7.40
2022-12-25T01:37:24.600Z,7.40
2022-12-25T01:39:51.893Z,7.40
2022-12-25T01:42:20.310Z,7.50
2022-12-25T01:44:47.471Z,7.50
2022-12-25T01:47:15.349Z,7.50
2022-12-25T01:49:44.103Z,7.50
2022-12-25T01:52:20.314Z,7.40
2022-12-25T01:54:55.040Z,7.40
2022-12-25T01:57:24.560Z,7.40
2022-12-25T01:59:51.771Z,7.50
2022-12-25T02:02:19.086Z,7.60
2022-12-25T02:04:57.389Z,7.60
2022-12-25T02:07:26.152Z,7.60
2022-12-25T02:09:53.522Z,7.60
2022-12-25T02:12:32.926Z,7.60
2022-12-25T02:15:05.785Z,7.60
2022-12-25T02:17:41.787Z,7.70
2022-12-25T02:20:20.607Z,7.50
2022-12-25T02:23:05.281Z,7.60
2022-12-25T02:25:47.836Z,7.60
2022-12-25T02:28:45.627Z,7.60
2022-12-25T02:31:22.266Z,7.60
2022-12-25T02:34:04.009Z,7.70
2022-12-25T02:36:46.606Z,7.60
2022-12-25T02:39:41.096Z,7.60
2022-12-25T02:42:09.171Z,7.60
2022-12-25T02:44:54.835Z,7.60
2022-12-25T02:47:40.282Z,7.70
2022-12-25T02:50:26.318Z,7.80
2022-12-25T02:53:11.873Z,7.90
2022-12-25T02:55:58.883Z,7.90
2022-12-25T02:58:44.715Z,8.00
2022-12-25T03:01:35.495Z,8.00
2022-12-25T03:04:24.119Z,8.00
2022-12-25T03:07:02.129Z,8.00
2022-12-25T03:09:50.260Z,8.00
2022-12-25T03:12:39.497Z,8.00
2022-12-25T03:15:25.956Z,8.00
2022-12-25T03:17:53.189Z,8.10
2022-12-25T03:20:38.888Z,8.10
2022-12-25T03:23:24.799Z,8.10
2022-12-25T03:26:10.432Z,8.10
2022-12-25T03:28:37.628Z,8.10
2022-12-25T03:31:13.752Z,8.20
2022-12-25T03:34:10.749Z,8.20
2022-12-25T03:37:13.255Z,8.10
2022-12-25T03:39:55.019Z,8.10
2022-12-25T03:42:46.668Z,8.10
2022-12-25T03:45:43.389Z,8.10
2022-12-25T03:48:31.034Z,8.00
2022-12-25T03:51:20.792Z,7.90
2022-12-25T03:54:18.572Z,8.00
2022-12-25T03:57:04.437Z,7.90
2022-12-25T03:59:49.909Z,8.00
2022-12-25T04:02:35.862Z,8.00
2022-12-25T04:05:21.717Z,8.10
2022-12-25T04:08:07.191Z,8.10
2022-12-25T04:10:53.190Z,8.10
2022-12-25T04:13:38.743Z,8.00
2022-12-25T04:16:24.715Z,7.90
2022-12-25T04:19:10.432Z,7.90
2022-12-25T04:21:56.220Z,8.00
2022-12-25T04:24:41.949Z,7.90
2022-12-25T04:27:27.829Z,8.00
2022-12-25T04:30:13.905Z,8.00
2022-12-25T04:32:59.863Z,7.90
2022-12-25T04:35:45.475Z,7.80
2022-12-25T04:38:12.705Z,7.70
2022-12-25T04:40:39.925Z,7.70
2022-12-25T04:43:07.112Z,7.80
2022-12-25T04:45:34.291Z,7.90
2022-12-25T04:48:01.480Z,7.90
2022-12-25T04:50:28.663Z,7.90
2022-12-25T04:52:55.894Z,7.90
2022-12-25T04:55:23.067Z,7.90
2022-12-25T04:57:50.290Z,7.90
2022-12-25T05:00:17.905Z,7.80
2022-12-25T05:02:45.301Z,7.80
2022-12-25T05:05:12.654Z,7.80
2022-12-25T05:07:39.851Z,7.80
2022-12-25T05:10:07.620Z,7.90
2022-12-25T05:12:34.906Z,7.90
2022-12-25T05:15:02.081Z,7.90
2022-12-25T05:17:29.275Z,7.90
2022-12-25T05:19:56.475Z,8.00
2022-12-25T05:22:23.709Z,7.90
2022-12-25T05:24:50.929Z,7.90
2022-12-25T05:27:18.195Z,7.90
2022-12-25T05:29:45.422Z,7.90
2022-12-25T05:32:12.636Z,7.80
2022-12-25T05:34:39.874Z,7.80
2022-12-25T05:37:07.150Z,7.70
2022-12-25T05:39:34.445Z,7.70
2022-12-25T05:42:01.676Z,7.60
2022-12-25T05:44:28.865Z,7.70
2022-12-25T05:46:56.144Z,7.70
2022-12-25T05:49:23.435Z,7.80
2022-12-25T05:51:50.628Z,7.80
2022-12-25T05:54:17.804Z,7.80
2022-12-25T05:56:44.995Z,7.90
2022-12-25T05:59:12.159Z,7.80
2022-12-25T06:01:39.553Z,7.80
2022-12-25T06:04:12.209Z,7.80
2022-12-25T06:06:40.624Z,7.80
2022-12-25T06:09:07.831Z,7.90
2022-12-25T06:11:35.001Z,7.80
2022-12-25T06:14:02.196Z,7.70
2022-12-25T06:16:35.633Z,7.80
2022-12-25T06:19:05.080Z,7.80
2022-12-25T06:21:32.281Z,7.60
2022-12-25T06:24:02.762Z,7.60
2022-12-25T06:26:30.028Z,7.60
2022-12-25T06:28:57.233Z,7.60
2022-12-25T06:31:24.631Z,7.60
2022-12-25T06:33:51.975Z,7.60
2022-12-25T06:36:21.255Z,7.60
2022-12-25T06:38:48.490Z,7.70
2022-12-25T06:41:17.445Z,7.70
2022-12-25T06:43:48.298Z,7.60
2022-12-25T06:46:15.585Z,7.60
2022-12-25T06:48:47.948Z,7.60
2022-12-25T06:51:16.438Z,7.60
2022-12-25T06:53:43.687Z,7.70
2022-12-25T06:56:15.956Z,7.70
2022-12-25T06:58:44.244Z,7.70
2022-12-25T07:01:21.466Z,7.70
2022-12-25T07:03:49.592Z,7.70
2022-12-25T07:06:16.777Z,7.60
2022-12-25T07:08:43.974Z,7.60
2022-12-25T07:11:11.191Z,7.60
2022-12-25T07:13:38.385Z,7.70
2022-12-25T07:16:07.471Z,7.70
2022-12-25T07:18:34.815Z,7.70
2022-12-25T07:21:12.801Z,7.70
2022-12-25T07:23:40.329Z,7.70
2022-12-25T07:26:07.557Z,7.70
2022-12-25T07:28:34.785Z,7.80
2022-12-25T07:31:09.731Z,7.80
2022-12-25T07:33:36.918Z,7.90
2022-12-25T07:36:05.393Z,7.90
2022-12-25T07:38:32.809Z,7.90
2022-12-25T07:41:00.097Z,7.90
2022-12-25T07:43:27.530Z,7.90
2022-12-25T07:45:58.682Z,8.00
2022-12-25T07:48:26.635Z,8.00
2022-12-25T07:51:10.711Z,8.10
2022-12-25T07:53:38.095Z,8.10
2022-12-25T07:56:11.486Z,8.10
2022-12-25T07:58:38.900Z,8.10
2022-12-25T08:01:18.063Z,8.20
2022-12-25T08:03:53.109Z,8.40
2022-12-25T08:06:20.716Z,8.40
2022-12-25T08:08:47.972Z,8.50
2022-12-25T08:11:15.261Z,8.60
2022-12-25T08:13:42.473Z,8.60
2022-12-25T08:16:10.144Z,8.50
2022-12-25T08:18:38.089Z,8.50
2022-12-25T08:21:06.911Z,8.60
2022-12-25T08:23:35.198Z,8.60
2022-12-25T08:26:05.373Z,8.70
2022-12-25T08:28:34.171Z,8.70
2022-12-25T08:31:16.899Z,8.80
2022-12-25T08:33:44.306Z,8.80
2022-12-25T08:36:12.297Z,9.00
2022-12-25T08:38:39.756Z,8.90
2022-12-25T08:41:07.014Z,9.00
2022-12-25T08:43:34.200Z,9.00
2022-12-25T08:46:01.621Z,9.10
2022-12-25T08:48:28.894Z,9.10
2022-12-25T08:50:56.170Z,9.10
2022-12-25T08:53:23.552Z,9.10
2022-12-25T08:56:00.354Z,9.20
2022-12-25T08:58:27.835Z,9.30
2022-12-25T09:00:55.314Z,9.30
2022-12-25T09:03:23.210Z,9.50
2022-12-25T09:05:51.148Z,9.60
2022-12-25T09:08:18.771Z,9.60
2022-12-25T09:10:46.007Z,9.70
2022-12-25T09:13:13.615Z,9.80
2022-12-25T09:15:40.952Z,10.00
2022-12-25T09:18:08.195Z,10.10
2022-12-25T09:20:35.392Z,10.10
2022-12-25T09:23:02.683Z,10.20
2022-12-25T09:25:29.881Z,10.40
2022-12-25T09:27:57.156Z,10.40
2022-12-25T09:30:24.396Z,10.50
2022-12-25T09:32:51.678Z,10.40
2022-12-25T09:35:19.028Z,10.40
2022-12-25T09:37:46.242Z,10.50
2022-12-25T09:40:20.602Z,10.60
2022-12-25T09:42:48.099Z,10.80
2022-12-25T09:45:18.298Z,10.90
2022-12-25T09:47:46.858Z,11.00
2022-12-25T09:50:23.836Z,11.00
2022-12-25T09:52:52.751Z,10.90
2022-12-25T09:55:21.929Z,10.80
2022-12-25T09:57:54.214Z,10.80
2022-12-25T10:00:23.266Z,10.90
2022-12-25T10:03:00.653Z,11.00
2022-12-25T10:05:53.473Z,11.20
2022-12-25T10:08:57.877Z,11.30
2022-12-25T10:11:41.057Z,11.50
2022-12-25T10:14:32.923Z,11.70
2022-12-25T10:17:03.268Z,11.60
2022-12-25T10:19:52.624Z,11.70
2022-12-25T10:22:24.515Z,11.80
2022-12-25T10:24:52.786Z,11.90
2022-12-25T10:27:33.323Z,12.00
2022-12-25T10:30:00.595Z,12.10
2022-12-25T10:32:27.873Z,12.20
2022-12-25T10:34:55.053Z,12.20
2022-12-25T10:37:22.259Z,12.30
2022-12-25T10:39:49.488Z,12.40
2022-12-25T10:42:29.057Z,12.50
2022-12-25T10:45:00.108Z,12.50
2022-12-25T10:47:29.699Z,12.60
2022-12-25T10:49:57.161Z,12.70
2022-12-25T10:52:26.362Z,12.70
2022-12-25T10:54:53.752Z,12.80
2022-12-25T10:57:22.536Z,13.00
2022-12-25T10:59:51.598Z,13.10
2022-12-25T11:02:18.825Z,13.20
2022-12-25T11:04:47.309Z,13.00
2022-12-25T11:07:15.556Z,12.90
2022-12-25T11:09:52.591Z,13.00
2022-12-25T11:12:20.655Z,13.10
2022-12-25T11:14:59.154Z,13.20
2022-12-25T11:17:27.497Z,13.20
2022-12-25T11:19:59.277Z,13.30
2022-12-25T11:22:26.608Z,13.40
2022-12-25T11:24:53.839Z,13.40
2022-12-25T11:27:26.563Z,13.40
2022-12-25T11:30:12.652Z,13.50
2022-12-25T11:32:48.622Z,13.60
2022-12-25T11:35:17.439Z,13.60
2022-12-25T11:37:53.413Z,13.70
2022-12-25T11:40:39.548Z,13.80
2022-12-25T11:43:15.009Z,14.00
2022-12-25T11:45:46.261Z,14.10
2022-12-25T11:48:30.539Z,14.20
2022-12-25T11:50:59.285Z,14.10
2022-12-25T11:53:41.167Z,14.20
2022-12-25T11:56:19.750Z,14.30
2022-12-25T11:58:48.301Z,14.50
2022-12-25T12:01:30.349Z,14.60
2022-12-25T12:03:59.301Z,14.60
2022-12-25T12:06:33.753Z,14.70
2022-12-25T12:09:27.309Z,14.70
2022-12-25T12:12:08.224Z,14.70
2022-12-25T12:15:03.111Z,14.70
2022-12-25T12:17:31.676Z,14.80
2022-12-25T12:19:58.898Z,14.60
2022-12-25T12:22:27.533Z,14.60
2022-12-25T12:24:59.899Z,14.70
2022-12-25T12:27:31.303Z,14.80
2022-12-25T12:29:58.984Z,14.80
2022-12-25T12:32:39.677Z,14.80
2022-12-25T12:35:13.870Z,14.80
2022-12-25T12:37:41.202Z,14.80
2022-12-25T12:40:21.583Z,14.80
2022-12-25T12:42:50.604Z,14.80
2022-12-25T12:45:25.079Z,14.80
2022-12-25T12:47:52.465Z,14.70
2022-12-25T12:50:35.945Z,14.60
2022-12-25T12:53:26.922Z,14.60
2022-12-25T12:55:54.280Z,14.50
2022-12-25T12:58:48.342Z,14.50
2022-12-25T13:01:27.961Z,14.40
2022-12-25T13:04:07.227Z,14.40
2022-12-25T13:06:37.595Z,14.40
2022-12-25T13:09:16.948Z,14.40
2022-12-25T13:11:44.145Z,14.30
2022-12-25T13:14:22.011Z,14.30
2022-12-25T13:16:51.401Z,14.40
2022-12-25T13:19:22.109Z,14.30
2022-12-25T13:21:57.108Z,14.30
2022-12-25T13:24:26.061Z,14.20
2022-12-25T13:26:53.280Z,14.30
2022-12-25T13:29:36.381Z,14.30
2022-12-25T13:32:04.804Z,14.30
2022-12-25T13:34:34.477Z,14.30
2022-12-25T13:37:09.488Z,14.20
2022-12-25T13:39:36.901Z,14.20
2022-12-25T13:42:05.465Z,14.20
2022-12-25T13:44:56.388Z,14.10
2022-12-25T13:47:31.543Z,14.00
2022-12-25T13:49:59.976Z,14.00
2022-12-25T13:52:33.836Z,14.10
2022-12-25T13:55:02.666Z,14.00
2022-12-25T13:57:33.239Z,14.00
2022-12-25T14:00:00.699Z,14.00
2022-12-25T14:02:37.595Z,13.90
2022-12-25T14:05:23.831Z,13.90
2022-12-25T14:07:54.923Z,13.90
2022-12-25T14:10:23.241Z,13.80
2022-12-25T14:12:51.231Z,13.80
2022-12-25T14:15:21.077Z,13.80
2022-12-25T14:17:49.725Z,13.70
2022-12-25T14:20:30.503Z,13.60
2022-12-25T14:22:58.667Z,13.60
2022-12-25T14:25:35.120Z,13.60
2022-12-25T14:28:06.328Z,13.40
2022-12-25T14:30:33.547Z,13.30
2022-12-25T14:33:02.614Z,13.30
2022-12-25T14:35:29.799Z,13.20
2022-12-25T14:37:59.931Z,13.20
2022-12-25T14:40:30.801Z,13.20
2022-12-25T14:42:59.896Z,13.10
2022-12-25T14:45:34.947Z,13.10
2022-12-25T14:48:17.499Z,13.00
2022-12-25T14:51:03.554Z,13.00
2022-12-25T14:53:38.565Z,12.90
2022-12-25T14:56:06.571Z,12.90
2022-12-25T14:58:37.379Z,12.80
2022-12-25T15:01:04.814Z,12.80
2022-12-25T15:03:35.576Z,12.70
2022-12-25T15:06:24.834Z,12.60
2022-12-25T15:09:00.045Z,12.50
2022-12-25T15:11:27.563Z,12.50
2022-12-25T15:13:54.773Z,12.40
2022-12-25T15:16:25.954Z,12.30
2022-12-25T15:18:53.225Z,12.20
2022-12-25T15:21:27.780Z,12.00
2022-12-25T15:23:55.162Z,11.90
2022-12-25T15:26:22.661Z,11.80
2022-12-25T15:28:49.953Z,11.80
2022-12-25T15:31:20.952Z,11.70
2022-12-25T15:33:48.905Z,11.50
2022-12-25T15:36:16.187Z,11.40
2022-12-25T15:38:43.600Z,11.40
2022-12-25T15:41:34.810Z,11.30
2022-12-25T15:44:02.216Z,11.30
2022-12-25T15:46:29.499Z,11.20
2022-12-25T15:48:56.760Z,11.10
2022-12-25T15:51:23.961Z,11.00
2022-12-25T15:53:51.196Z,10.90
2022-12-25T15:56:18.396Z,10.80
2022-12-25T15:58:45.576Z,10.70
2022-12-25T16:01:17.024Z,10.50
2022-12-25T16:03:44.511Z,10.50
2022-12-25T16:06:12.710Z,10.50
2022-12-25T16:08:40.060Z,10.40
2022-12-25T16:11:07.515Z,10.20
2022-12-25T16:13:34.867Z,10.10
2022-12-25T16:16:02.821Z,10.00
2022-12-25T16:18:30.572Z,10.10
2022-12-25T16:20:57.755Z,10.10
2022-12-25T16:23:25.060Z,10.10
2022-12-25T16:25:52.271Z,10.00
2022-12-25T16:28:19.486Z,10.10
2022-12-25T16:30:46.744Z,9.90
2022-12-25T16:33:13.959Z,9.70
2022-12-25T16:35:41.163Z,9.70
2022-12-25T16:38:08.428Z,9.70
2022-12-25T16:40:35.638Z,9.60
2022-12-25T16:43:02.799Z,9.50
2022-12-25T16:45:30.002Z,9.50
2022-12-25T16:47:57.325Z,9.40
2022-12-25T16:50:24.606Z,9.40
2022-12-25T16:52:51.765Z,9.40
2022-12-25T16:55:18.988Z,9.40
2022-12-25T16:57:48.319Z,9.20
2022-12-25T17:00:15.958Z,9.20
2022-12-25T17:02:43.370Z,9.20
2022-12-25T17:05:10.810Z,9.20
2022-12-25T17:07:38.101Z,9.10
2022-12-25T17:10:06.717Z,9.00
2022-12-25T17:12:34.093Z,8.90
2022-12-25T17:15:01.339Z,8.80
2022-12-25T17:17:28.534Z,8.80
2022-12-25T17:19:55.735Z,8.80
2022-12-25T17:22:22.933Z,8.80
2022-12-25T17:24:50.134Z,8.70
2022-12-25T17:27:17.311Z,8.80
2022-12-25T17:29:45.037Z,8.80
2022-12-25T17:32:12.266Z,8.80
2022-12-25T17:34:39.507Z,8.70
2022-12-25T17:37:06.761Z,8.60
2022-12-25T17:39:34.000Z,8.50
2022-12-25T17:42:01.189Z,8.50
2022-12-25T17:44:28.475Z,8.40
2022-12-25T17:46:55.670Z,8.40
2022-12-25T17:49:23.331Z,8.30
2022-12-25T17:51:50.571Z,8.30
2022-12-25T17:54:17.779Z,8.20
2022-12-25T17:56:44.996Z,8.20
2022-12-25T17:59:17.824Z,8.20
2022-12-25T18:01:45.762Z,8.20
2022-12-25T18:04:13.069Z,8.20
2022-12-25T18:06:40.400Z,8.10
2022-12-25T18:09:07.727Z,8.10
2022-12-25T18:11:36.779Z,8.00
2022-12-25T18:14:05.189Z,7.90
2022-12-25T18:16:34.038Z,7.90
2022-12-25T18:19:01.383Z,7.90
2022-12-25T18:21:28.605Z,7.80
2022-12-25T18:23:55.940Z,7.80
2022-12-25T18:26:23.320Z,7.90
2022-12-25T18:28:50.889Z,8.00
2022-12-25T18:31:19.992Z,8.10
2022-12-25T18:33:47.542Z,8.10
2022-12-25T18:36:15.862Z,8.10
2022-12-25T18:38:43.111Z,8.20
2022-12-25T18:41:10.476Z,8.20
2022-12-25T18:43:52.569Z,8.20
2022-12-25T18:46:26.448Z,8.30
2022-12-25T18:48:57.286Z,8.20
2022-12-25T18:51:24.774Z,8.30
2022-12-25T18:53:52.089Z,8.30
2022-12-25T18:56:20.272Z,8.30
2022-12-25T18:58:47.516Z,8.40
2022-12-25T19:01:18.713Z,8.30
2022-12-25T19:03:48.964Z,8.30
2022-12-25T19:06:21.746Z,8.40
2022-12-25T19:08:48.959Z,8.30
2022-12-25T19:11:16.517Z,8.30
2022-12-25T19:13:43.808Z,8.30
2022-12-25T19:16:11.313Z,8.40
2022-12-25T19:18:38.884Z,8.30
2022-12-25T19:21:07.685Z,8.40
2022-12-25T19:23:35.083Z,8.30
2022-12-25T19:26:05.197Z,8.30
2022-12-25T19:28:32.504Z,8.30
2022-12-25T19:31:00.404Z,8.30
2022-12-25T19:33:27.713Z,8.30
2022-12-25T19:36:00.453Z,8.30
2022-12-25T19:38:29.262Z,8.30
2022-12-25T19:41:02.268Z,8.40
2022-12-25T19:43:30.884Z,8.40
2022-12-25T19:45:59.525Z,8.40
2022-12-25T19:48:26.751Z,8.50
2022-12-25T19:50:54.102Z,8.50
2022-12-25T19:53:23.679Z,8.50
2022-12-25T19:55:52.420Z,8.50
2022-12-25T19:58:20.440Z,8.50
2022-12-25T20:01:01.446Z,8.50
2022-12-25T20:03:28.852Z,8.50
2022-12-25T20:05:56.516Z,8.50
2022-12-25T20:08:24.206Z,8.60
2022-12-25T20:10:51.475Z,8.60
2022-12-25T20:13:18.861Z,8.70
2022-12-25T20:15:46.879Z,8.70
2022-12-25T20:18:14.257Z,8.80
2022-12-25T20:20:41.425Z,8.80
2022-12-25T20:23:08.673Z,8.90
2022-12-25T20:25:40.234Z,8.90
2022-12-25T20:28:07.481Z,8.90
2022-12-25T20:30:37.591Z,9.00
2022-12-25T20:33:04.788Z,9.00
2022-12-25T20:35:31.982Z,8.90
2022-12-25T20:37:59.229Z,8.90
2022-12-25T20:40:26.419Z,8.90
2022-12-25T20:42:53.717Z,8.90
2022-12-25T20:45:20.932Z,8.90
2022-12-25T20:47:48.246Z,8.90
2022-12-25T20:50:15.454Z,9.00
2022-12-25T20:52:42.640Z,9.00
2022-12-25T20:55:10.048Z,9.00
2022-12-25T20:57:37.270Z,9.00
2022-12-25T21:00:05.027Z,9.00
2022-12-25T21:02:36.634Z,8.90
2022-12-25T21:05:06.896Z,8.90
2022-12-25T21:07:34.145Z,8.90
2022-12-25T21:10:01.340Z,8.90
2022-12-25T21:12:28.525Z,8.90
2022-12-25T21:14:55.692Z,8.90
2022-12-25T21:17:22.910Z,8.90
2022-12-25T21:19:50.109Z,8.80
2022-12-25T21:22:17.281Z,8.90
2022-12-25T21:24:45.595Z,8.90
2022-12-25T21:27:12.813Z,8.80
2022-12-25T21:29:40.003Z,8.80
2022-12-25T21:32:25.602Z,8.80
2022-12-25T21:34:52.804Z,8.80
2022-12-25T21:37:19.988Z,8.80
2022-12-25T21:39:50.287Z,8.80
2022-12-25T21:42:17.476Z,8.90
2022-12-25T21:44:44.720Z,8.90
2022-12-25T21:47:11.893Z,9.00
2022-12-25T21:49:57.845Z,9.00
2022-12-25T21:52:25.784Z,9.00
2022-12-25T21:54:53.129Z,8.90
2022-12-25T21:57:20.318Z,8.90
2022-12-25T21:59:48.155Z,8.90
2022-12-25T22:02:15.494Z,8.90
2022-12-25T22:04:42.923Z,9.00
2022-12-25T22:07:19.052Z,8.90
2022-12-25T22:09:50.460Z,8.90
2022-12-25T22:12:37.793Z,8.90
2022-12-25T22:15:09.536Z,8.90
2022-12-25T22:17:57.092Z,8.90
2022-12-25T22:20:24.264Z,8.90
2022-12-25T22:22:51.520Z,8.80
2022-12-25T22:25:18.844Z,8.80
2022-12-25T22:27:46.525Z,8.80
2022-12-25T22:30:16.200Z,8.80
2022-12-25T22:32:43.455Z,8.80
2022-12-25T22:35:12.244Z,8.70
2022-12-25T22:37:40.700Z,8.70
2022-12-25T22:40:08.303Z,8.70
2022-12-25T22:42:35.582Z,8.60
2022-12-25T22:45:03.195Z,8.60
2022-12-25T22:47:30.425Z,8.60
2022-12-25T22:49:57.676Z,8.60
2022-12-25T22:52:24.874Z,8.50
2022-12-25T22:54:52.045Z,8.50
2022-12-25T22:57:19.315Z,8.50
2022-12-25T22:59:46.570Z,8.40
2022-12-25T23:02:13.890Z,8.40
2022-12-25T23:04:41.199Z,8.40
2022-12-25T23:07:09.315Z,8.40
2022-12-25T23:09:36.513Z,8.40
2022-12-25T23:12:03.964Z,8.40
2022-12-25T23:14:40.261Z,8.40
2022-12-25T23:17:30.550Z,8.40
2022-12-25T23:20:17.603Z,8.40
2022-12-25T23:23:03.797Z,8.40
2022-12-25T23:25:49.489Z,8.30
2022-12-25T23:28:36.658Z,8.30
2022-12-25T23:31:03.980Z,8.30
2022-12-25T23:33:31.238Z,8.30
2022-12-25T23:35:58.437Z,8.30
2022-12-25T23:38:25.634Z,8.20
2022-12-25T23:40:52.887Z,8.30
2022-12-25T23:43:20.109Z,8.20
2022-12-25T23:45:47.306Z,8.20
2022-12-25T23:48:14.496Z,8.20
2022-12-25T23:50:41.695Z,8.20
2022-12-25T23:53:10.220Z,8.20
2022-12-25T23:55:37.429Z,8.20
2022-12-25T23:58:04.689Z,8.20
